sensor_id;sensor_type;location;lat;lon;timestamp;pressure;altitude;pressure_sealevel;temperature;humidity
46379;BME280;32084;42.254;22.744;2023-12-29T00:01:59;95922.25;;;1.27;95.65
46379;BME280;32084;42.254;22.744;2023-12-29T00:04:25;95921.13;;;1.31;94.92
46379;BME280;32084;42.254;22.744;2023-12-29T00:06:51;95907.28;;;1.43;94.82
46379;BME280;32084;42.254;22.744;2023-12-29T00:09:17;95904.97;;;1.53;94.82
46379;BME280;32084;42.254;22.744;2023-12-29T00:11:46;95907.53;;;1.54;94.18
46379;BME280;32084;42.254;22.744;2023-12-29T00:14:12;95903.88;;;1.41;94.19
46379;BME280;32084;42.254;22.744;2023-12-29T00:16:38;95912.63;;;1.42;93.96
46379;BME280;32084;42.254;22.744;2023-12-29T00:19:04;95908.88;;;1.46;94.43
46379;BME280;32084;42.254;22.744;2023-12-29T00:21:30;95906.25;;;1.46;94.19
46379;BME280;32084;42.254;22.744;2023-12-29T00:23:56;95901.66;;;1.49;94.14
46379;BME280;32084;42.254;22.744;2023-12-29T00:26:22;95897.66;;;1.58;93.71
46379;BME280;32084;42.254;22.744;2023-12-29T00:28:48;95905.28;;;1.63;93.41
46379;BME280;32084;42.254;22.744;2023-12-29T00:31:14;95911.69;;;1.59;93.92
46379;BME280;32084;42.254;22.744;2023-12-29T00:33:43;95910.09;;;1.56;94.06
46379;BME280;32084;42.254;22.744;2023-12-29T00:36:16;95902.28;;;1.39;93.29
46379;BME280;32084;42.254;22.744;2023-12-29T00:38:42;95907.72;;;1.35;95.48
46379;BME280;32084;42.254;22.744;2023-12-29T00:41:08;95909.31;;;1.38;95.04
46379;BME280;32084;42.254;22.744;2023-12-29T00:43:35;95916.38;;;1.38;94.86
46379;BME280;32084;42.254;22.744;2023-12-29T00:46:01;95921.97;;;1.47;94.53
46379;BME280;32084;42.254;22.744;2023-12-29T00:48:27;95916.91;;;1.28;94.71
46379;BME280;32084;42.254;22.744;2023-12-29T00:50:53;95916.13;;;1.26;94.72
46379;BME280;32084;42.254;22.744;2023-12-29T00:53:19;95905.59;;;1.26;95.04
46379;BME280;32084;42.254;22.744;2023-12-29T00:55:45;95915.38;;;1.24;93.84
46379;BME280;32084;42.254;22.744;2023-12-29T00:58:11;95910.78;;;1.28;94.98
46379;BME280;32084;42.254;22.744;2023-12-29T01:00:37;95914.88;;;1.02;94.50
46379;BME280;32084;42.254;22.744;2023-12-29T01:03:03;95912.13;;;0.87;95.60
46379;BME280;32084;42.254;22.744;2023-12-29T01:05:29;95910.00;;;0.78;96.35
46379;BME280;32084;42.254;22.744;2023-12-29T01:07:55;95915.59;;;0.72;97.26
46379;BME280;32084;42.254;22.744;2023-12-29T01:10:21;95912.13;;;0.87;97.66
46379;BME280;32084;42.254;22.744;2023-12-29T01:12:47;95917.06;;;0.93;96.62
46379;BME280;32084;42.254;22.744;2023-12-29T01:15:13;95914.69;;;1.05;97.07
46379;BME280;32084;42.254;22.744;2023-12-29T01:17:39;95911.03;;;1.23;96.41
46379;BME280;32084;42.254;22.744;2023-12-29T01:20:05;95914.50;;;1.08;93.56
46379;BME280;32084;42.254;22.744;2023-12-29T01:22:31;95927.16;;;0.85;93.75
46379;BME280;32084;42.254;22.744;2023-12-29T01:25:00;95927.16;;;0.85;94.97
46379;BME280;32084;42.254;22.744;2023-12-29T01:27:27;95921.41;;;0.94;95.68
46379;BME280;32084;42.254;22.744;2023-12-29T01:29:53;95913.69;;;1.07;96.78
46379;BME280;32084;42.254;22.744;2023-12-29T01:32:19;95914.44;;;1.09;95.70
46379;BME280;32084;42.254;22.744;2023-12-29T01:34:45;95913.16;;;1.16;96.29
46379;BME280;32084;42.254;22.744;2023-12-29T01:37:11;95905.50;;;1.12;95.52
46379;BME280;32084;42.254;22.744;2023-12-29T01:39:37;95906.97;;;1.02;92.90
46379;BME280;32084;42.254;22.744;2023-12-29T01:42:03;95911.47;;;0.84;92.40
46379;BME280;32084;42.254;22.744;2023-12-29T01:44:29;95911.34;;;0.69;93.76
46379;BME280;32084;42.254;22.744;2023-12-29T01:46:55;95905.50;;;0.80;95.24
46379;BME280;32084;42.254;22.744;2023-12-29T01:49:22;95909.34;;;0.90;94.88
46379;BME280;32084;42.254;22.744;2023-12-29T01:51:52;95908.38;;;0.75;91.22
46379;BME280;32084;42.254;22.744;2023-12-29T01:54:19;95911.69;;;0.63;92.81
46379;BME280;32084;42.254;22.744;2023-12-29T01:56:46;95913.47;;;0.63;92.98
46379;BME280;32084;42.254;22.744;2023-12-29T01:59:12;95914.03;;;0.52;92.48
46379;BME280;32084;42.254;22.744;2023-12-29T02:01:38;95910.34;;;0.38;94.18
46379;BME280;32084;42.254;22.744;2023-12-29T02:04:07;95909.09;;;0.46;94.80
46379;BME280;32084;42.254;22.744;2023-12-29T02:06:33;95910.22;;;0.57;95.69
46379;BME280;32084;42.254;22.744;2023-12-29T02:09:00;95903.97;;;0.76;95.93
46379;BME280;32084;42.254;22.744;2023-12-29T02:11:27;95900.06;;;0.83;94.84
46379;BME280;32084;42.254;22.744;2023-12-29T02:13:53;95900.22;;;0.64;93.66
46379;BME280;32084;42.254;22.744;2023-12-29T02:16:21;95896.78;;;0.46;92.97
46379;BME280;32084;42.254;22.744;2023-12-29T02:18:49;95885.94;;;0.52;93.79
46379;BME280;32084;42.254;22.744;2023-12-29T02:21:16;95897.91;;;0.58;93.72
46379;BME280;32084;42.254;22.744;2023-12-29T02:23:42;95904.91;;;0.42;93.19
46379;BME280;32084;42.254;22.744;2023-12-29T02:26:09;95893.22;;;0.47;92.89
46379;BME280;32084;42.254;22.744;2023-12-29T02:28:36;95895.88;;;0.30;93.84
46379;BME280;32084;42.254;22.744;2023-12-29T02:31:09;95896.66;;;0.32;95.96
46379;BME280;32084;42.254;22.744;2023-12-29T02:33:38;95896.78;;;0.46;95.18
46379;BME280;32084;42.254;22.744;2023-12-29T02:36:05;95897.28;;;0.53;94.05
46379;BME280;32084;42.254;22.744;2023-12-29T02:38:32;95898.47;;;0.47;93.58
46379;BME280;32084;42.254;22.744;2023-12-29T02:40:58;95892.53;;;0.44;93.66
46379;BME280;32084;42.254;22.744;2023-12-29T02:43:25;95888.13;;;0.44;94.49
46379;BME280;32084;42.254;22.744;2023-12-29T02:45:51;95883.63;;;0.46;94.31
46379;BME280;32084;42.254;22.744;2023-12-29T02:48:17;95880.66;;;0.52;93.61
46379;BME280;32084;42.254;22.744;2023-12-29T02:50:42;95864.13;;;0.50;93.44
46379;BME280;32084;42.254;22.744;2023-12-29T02:53:08;95870.81;;;0.40;93.15
46379;BME280;32084;42.254;22.744;2023-12-29T02:55:34;95875.47;;;0.35;93.10
46379;BME280;32084;42.254;22.744;2023-12-29T02:58:00;95863.41;;;0.31;93.08
46379;BME280;32084;42.254;22.744;2023-12-29T03:00:26;95845.91;;;0.30;94.04
46379;BME280;32084;42.254;22.744;2023-12-29T03:02:52;95847.63;;;0.31;94.50
46379;BME280;32084;42.254;22.744;2023-12-29T03:05:18;95854.63;;;0.30;93.60
46379;BME280;32084;42.254;22.744;2023-12-29T03:07:44;95842.72;;;0.41;92.99
46379;BME280;32084;42.254;22.744;2023-12-29T03:10:10;95841.34;;;0.49;91.88
46379;BME280;32084;42.254;22.744;2023-12-29T03:12:36;95848.41;;;0.49;92.85
46379;BME280;32084;42.254;22.744;2023-12-29T03:15:02;95846.19;;;0.41;91.50
46379;BME280;32084;42.254;22.744;2023-12-29T03:17:28;95844.28;;;-0.06;93.89
46379;BME280;32084;42.254;22.744;2023-12-29T03:19:54;95835.50;;;-0.23;95.56
46379;BME280;32084;42.254;22.744;2023-12-29T03:22:20;95847.22;;;-0.12;96.59
46379;BME280;32084;42.254;22.744;2023-12-29T03:24:46;95852.06;;;0.13;96.32
46379;BME280;32084;42.254;22.744;2023-12-29T03:27:12;95839.72;;;0.31;93.48
46379;BME280;32084;42.254;22.744;2023-12-29T03:29:38;95847.00;;;0.26;92.91
46379;BME280;32084;42.254;22.744;2023-12-29T03:32:04;95851.75;;;0.02;93.34
46379;BME280;32084;42.254;22.744;2023-12-29T03:34:31;95863.16;;;0.02;92.94
46379;BME280;32084;42.254;22.744;2023-12-29T03:36:57;95860.53;;;0.02;92.72
46379;BME280;32084;42.254;22.744;2023-12-29T03:39:23;95862.38;;;-0.17;89.83
46379;BME280;32084;42.254;22.744;2023-12-29T03:41:49;95859.94;;;-0.21;90.98
46379;BME280;32084;42.254;22.744;2023-12-29T03:44:15;95861.47;;;-0.16;92.16
46379;BME280;32084;42.254;22.744;2023-12-29T03:46:41;95855.88;;;-0.10;92.24
46379;BME280;32084;42.254;22.744;2023-12-29T03:49:07;95856.53;;;-0.23;91.79
46379;BME280;32084;42.254;22.744;2023-12-29T03:51:33;95853.66;;;-0.35;92.24
46379;BME280;32084;42.254;22.744;2023-12-29T03:53:59;95847.47;;;-0.34;93.34
46379;BME280;32084;42.254;22.744;2023-12-29T03:56:25;95849.66;;;-0.43;91.42
46379;BME280;32084;42.254;22.744;2023-12-29T03:58:51;95837.66;;;-0.31;92.42
46379;BME280;32084;42.254;22.744;2023-12-29T04:01:17;95836.56;;;-0.09;92.95
46379;BME280;32084;42.254;22.744;2023-12-29T04:03:43;95829.75;;;0.04;93.10
46379;BME280;32084;42.254;22.744;2023-12-29T04:06:09;95826.78;;;0.10;92.57
46379;BME280;32084;42.254;22.744;2023-12-29T04:08:36;95836.88;;;0.02;91.69
46379;BME280;32084;42.254;22.744;2023-12-29T04:11:02;95831.13;;;-0.06;92.61
46379;BME280;32084;42.254;22.744;2023-12-29T04:13:29;95835.63;;;-0.08;92.21
46379;BME280;32084;42.254;22.744;2023-12-29T04:15:55;95839.03;;;-0.06;92.44
46379;BME280;32084;42.254;22.744;2023-12-29T04:18:21;95833.31;;;-0.14;92.01
46379;BME280;32084;42.254;22.744;2023-12-29T04:20:47;95833.88;;;-0.43;93.19
46379;BME280;32084;42.254;22.744;2023-12-29T04:23:14;95838.97;;;-0.57;94.48
46379;BME280;32084;42.254;22.744;2023-12-29T04:25:40;95835.59;;;-0.42;94.87
46379;BME280;32084;42.254;22.744;2023-12-29T04:28:06;95840.44;;;-0.16;94.03
46379;BME280;32084;42.254;22.744;2023-12-29T04:30:32;95841.81;;;-0.09;93.72
46379;BME280;32084;42.254;22.744;2023-12-29T04:32:58;95838.56;;;-0.14;93.45
46379;BME280;32084;42.254;22.744;2023-12-29T04:35:24;95842.84;;;-0.29;94.63
46379;BME280;32084;42.254;22.744;2023-12-29T04:37:50;95834.09;;;-0.30;94.58
46379;BME280;32084;42.254;22.744;2023-12-29T04:40:16;95832.03;;;-0.41;94.91
46379;BME280;32084;42.254;22.744;2023-12-29T04:42:42;95840.91;;;-0.43;91.62
46379;BME280;32084;42.254;22.744;2023-12-29T04:45:09;95839.66;;;-0.71;89.85
46379;BME280;32084;42.254;22.744;2023-12-29T04:47:36;95842.97;;;-0.85;91.31
46379;BME280;32084;42.254;22.744;2023-12-29T04:50:02;95842.16;;;-1.04;93.16
46379;BME280;32084;42.254;22.744;2023-12-29T04:52:28;95839.78;;;-0.91;94.25
46379;BME280;32084;42.254;22.744;2023-12-29T04:54:54;95844.88;;;-1.06;94.83
46379;BME280;32084;42.254;22.744;2023-12-29T04:57:20;95855.16;;;-1.20;94.86
46379;BME280;32084;42.254;22.744;2023-12-29T04:59:46;95848.00;;;-1.35;95.42
46379;BME280;32084;42.254;22.744;2023-12-29T05:02:12;95838.22;;;-1.32;95.35
46379;BME280;32084;42.254;22.744;2023-12-29T05:04:41;95841.25;;;-1.22;96.17
46379;BME280;32084;42.254;22.744;2023-12-29T05:07:08;95844.22;;;-1.11;95.43
46379;BME280;32084;42.254;22.744;2023-12-29T05:09:34;95843.84;;;-1.03;94.57
46379;BME280;32084;42.254;22.744;2023-12-29T05:12:00;95845.94;;;-1.10;94.44
46379;BME280;32084;42.254;22.744;2023-12-29T05:14:26;95851.75;;;-1.22;91.62
46379;BME280;32084;42.254;22.744;2023-12-29T05:16:52;95853.31;;;-1.37;92.01
46379;BME280;32084;42.254;22.744;2023-12-29T05:19:18;95851.88;;;-1.44;92.76
46379;BME280;32084;42.254;22.744;2023-12-29T05:21:44;95844.25;;;-1.49;93.82
46379;BME280;32084;42.254;22.744;2023-12-29T05:24:10;95853.38;;;-1.39;94.05
46379;BME280;32084;42.254;22.744;2023-12-29T05:26:36;95850.28;;;-1.28;93.23
46379;BME280;32084;42.254;22.744;2023-12-29T05:29:02;95849.69;;;-1.15;91.85
46379;BME280;32084;42.254;22.744;2023-12-29T05:31:28;95854.25;;;-1.38;88.06
46379;BME280;32084;42.254;22.744;2023-12-29T05:33:55;95847.47;;;-1.42;88.98
46379;BME280;32084;42.254;22.744;2023-12-29T05:36:21;95848.22;;;-1.21;91.93
46379;BME280;32084;42.254;22.744;2023-12-29T05:38:47;95842.31;;;-1.26;89.88
46379;BME280;32084;42.254;22.744;2023-12-29T05:41:13;95852.69;;;-1.23;89.95
46379;BME280;32084;42.254;22.744;2023-12-29T05:43:39;95845.59;;;-1.21;89.80
46379;BME280;32084;42.254;22.744;2023-12-29T05:46:09;95847.06;;;-1.15;90.97
46379;BME280;32084;42.254;22.744;2023-12-29T05:48:35;95851.31;;;-1.13;89.89
46379;BME280;32084;42.254;22.744;2023-12-29T05:51:05;95851.22;;;-1.29;89.00
46379;BME280;32084;42.254;22.744;2023-12-29T05:53:31;95860.75;;;-1.47;89.96
46379;BME280;32084;42.254;22.744;2023-12-29T05:55:57;95859.44;;;-1.36;90.90
46379;BME280;32084;42.254;22.744;2023-12-29T05:58:23;95857.28;;;-1.28;90.67
46379;BME280;32084;42.254;22.744;2023-12-29T06:00:49;95856.66;;;-1.33;89.31
46379;BME280;32084;42.254;22.744;2023-12-29T06:03:16;95841.50;;;-1.46;86.82
46379;BME280;32084;42.254;22.744;2023-12-29T06:05:42;95847.44;;;-1.61;88.12
46379;BME280;32084;42.254;22.744;2023-12-29T06:08:08;95845.81;;;-1.45;89.69
46379;BME280;32084;42.254;22.744;2023-12-29T06:10:35;95846.38;;;-1.38;89.73
46379;BME280;32084;42.254;22.744;2023-12-29T06:13:02;95834.53;;;-1.85;88.08
46379;BME280;32084;42.254;22.744;2023-12-29T06:15:29;95829.78;;;-1.77;90.34
46379;BME280;32084;42.254;22.744;2023-12-29T06:17:56;95834.94;;;-1.75;90.62
46379;BME280;32084;42.254;22.744;2023-12-29T06:20:22;95829.44;;;-1.50;92.58
46379;BME280;32084;42.254;22.744;2023-12-29T06:22:48;95831.50;;;-1.38;93.56
46379;BME280;32084;42.254;22.744;2023-12-29T06:25:14;95834.03;;;-1.17;93.60
46379;BME280;32084;42.254;22.744;2023-12-29T06:27:41;95833.84;;;-1.14;93.70
46379;BME280;32084;42.254;22.744;2023-12-29T06:30:07;95837.75;;;-1.04;92.16
46379;BME280;32084;42.254;22.744;2023-12-29T06:32:34;95841.28;;;-1.05;91.81
46379;BME280;32084;42.254;22.744;2023-12-29T06:35:00;95836.69;;;-1.00;93.07
46379;BME280;32084;42.254;22.744;2023-12-29T06:37:26;95841.91;;;-1.17;93.27
46379;BME280;32084;42.254;22.744;2023-12-29T06:39:52;95843.47;;;-1.51;93.57
46379;BME280;32084;42.254;22.744;2023-12-29T06:42:19;95838.53;;;-1.57;93.10
46379;BME280;32084;42.254;22.744;2023-12-29T06:44:45;95830.41;;;-1.71;93.83
46379;BME280;32084;42.254;22.744;2023-12-29T06:47:11;95834.34;;;-1.61;95.50
46379;BME280;32084;42.254;22.744;2023-12-29T06:49:38;95826.44;;;-1.23;93.72
46379;BME280;32084;42.254;22.744;2023-12-29T06:52:04;95828.56;;;-0.95;92.63
46379;BME280;32084;42.254;22.744;2023-12-29T06:54:30;95821.06;;;-0.49;91.23
46379;BME280;32084;42.254;22.744;2023-12-29T06:56:57;95822.63;;;0.06;88.35
46379;BME280;32084;42.254;22.744;2023-12-29T06:59:23;95819.47;;;1.87;81.95
46379;BME280;32084;42.254;22.744;2023-12-29T07:01:49;95826.97;;;5.15;67.59
46379;BME280;32084;42.254;22.744;2023-12-29T07:04:15;95845.66;;;7.78;56.73
46379;BME280;32084;42.254;22.744;2023-12-29T07:06:41;95857.00;;;9.47;50.50
46379;BME280;32084;42.254;22.744;2023-12-29T07:09:08;95867.72;;;9.76;49.19
46379;BME280;32084;42.254;22.744;2023-12-29T07:11:34;95867.47;;;9.99;47.26
46379;BME280;32084;42.254;22.744;2023-12-29T07:14:01;95861.88;;;9.42;48.39
46379;BME280;32084;42.254;22.744;2023-12-29T07:16:27;95857.91;;;8.23;50.52
46379;BME280;32084;42.254;22.744;2023-12-29T07:18:53;95842.84;;;6.12;56.81
46379;BME280;32084;42.254;22.744;2023-12-29T07:21:19;95825.19;;;4.66;61.94
46379;BME280;32084;42.254;22.744;2023-12-29T07:23:45;95818.94;;;4.41;63.96
46379;BME280;32084;42.254;22.744;2023-12-29T07:26:11;95820.59;;;5.66;60.24
46379;BME280;32084;42.254;22.744;2023-12-29T07:28:37;95833.25;;;7.12;56.00
46379;BME280;32084;42.254;22.744;2023-12-29T07:31:03;95838.56;;;6.67;56.50
46379;BME280;32084;42.254;22.744;2023-12-29T07:33:30;95826.16;;;5.50;61.33
46379;BME280;32084;42.254;22.744;2023-12-29T07:35:56;95815.88;;;4.09;67.51
46379;BME280;32084;42.254;22.744;2023-12-29T07:38:22;95815.16;;;3.00;73.52
46379;BME280;32084;42.254;22.744;2023-12-29T07:40:48;95822.78;;;2.77;75.31
46379;BME280;32084;42.254;22.744;2023-12-29T07:43:15;95836.75;;;2.22;78.42
46379;BME280;32084;42.254;22.744;2023-12-29T07:45:41;95844.03;;;1.73;81.47
46379;BME280;32084;42.254;22.744;2023-12-29T07:48:09;95835.81;;;1.94;80.68
46379;BME280;32084;42.254;22.744;2023-12-29T07:50:35;95840.41;;;1.90;80.81
46379;BME280;32084;42.254;22.744;2023-12-29T07:53:01;95837.94;;;1.87;81.85
46379;BME280;32084;42.254;22.744;2023-12-29T07:55:30;95831.03;;;1.70;83.20
46379;BME280;32084;42.254;22.744;2023-12-29T07:57:56;95829.06;;;1.44;87.20
46379;BME280;32084;42.254;22.744;2023-12-29T08:00:22;95824.56;;;1.46;88.23
46379;BME280;32084;42.254;22.744;2023-12-29T08:02:49;95825.38;;;1.62;88.90
46379;BME280;32084;42.254;22.744;2023-12-29T08:05:15;95827.22;;;1.90;89.72
46379;BME280;32084;42.254;22.744;2023-12-29T08:07:42;95823.56;;;2.22;89.16
46379;BME280;32084;42.254;22.744;2023-12-29T08:10:09;95820.75;;;2.39;90.13
46379;BME280;32084;42.254;22.744;2023-12-29T08:12:35;95819.53;;;2.45;90.61
46379;BME280;32084;42.254;22.744;2023-12-29T08:15:01;95817.25;;;2.53;90.13
46379;BME280;32084;42.254;22.744;2023-12-29T08:17:28;95814.78;;;2.50;90.70
46379;BME280;32084;42.254;22.744;2023-12-29T08:19:54;95816.78;;;2.32;90.90
46379;BME280;32084;42.254;22.744;2023-12-29T08:22:21;95818.66;;;2.44;89.85
46379;BME280;32084;42.254;22.744;2023-12-29T08:24:47;95815.00;;;2.32;91.14
46379;BME280;32084;42.254;22.744;2023-12-29T08:27:13;95814.91;;;2.20;92.35
46379;BME280;32084;42.254;22.744;2023-12-29T08:29:39;95810.94;;;2.27;91.53
46379;BME280;32084;42.254;22.744;2023-12-29T08:32:05;95818.94;;;2.25;92.34
46379;BME280;32084;42.254;22.744;2023-12-29T08:34:31;95813.03;;;2.50;90.31
46379;BME280;32084;42.254;22.744;2023-12-29T08:36:58;95818.63;;;2.73;89.05
46379;BME280;32084;42.254;22.744;2023-12-29T08:39:24;95820.56;;;2.98;89.22
46379;BME280;32084;42.254;22.744;2023-12-29T08:41:50;95835.13;;;3.18;87.43
46379;BME280;32084;42.254;22.744;2023-12-29T08:44:16;95826.47;;;3.16;86.99
46379;BME280;32084;42.254;22.744;2023-12-29T08:46:42;95830.66;;;3.33;86.23
46379;BME280;32084;42.254;22.744;2023-12-29T08:49:08;95829.00;;;3.18;87.06
46379;BME280;32084;42.254;22.744;2023-12-29T08:51:34;95826.06;;;3.22;87.51
46379;BME280;32084;42.254;22.744;2023-12-29T08:54:00;95827.53;;;2.99;88.66
46379;BME280;32084;42.254;22.744;2023-12-29T08:56:26;95838.66;;;3.04;89.03
46379;BME280;32084;42.254;22.744;2023-12-29T08:58:53;95837.13;;;3.42;86.78
46379;BME280;32084;42.254;22.744;2023-12-29T09:01:19;95838.16;;;3.39;87.06
46379;BME280;32084;42.254;22.744;2023-12-29T09:03:45;95836.78;;;3.74;86.29
46379;BME280;32084;42.254;22.744;2023-12-29T09:06:11;95828.69;;;3.89;84.07
46379;BME280;32084;42.254;22.744;2023-12-29T09:08:37;95840.66;;;3.95;83.97
46379;BME280;32084;42.254;22.744;2023-12-29T09:11:03;95826.88;;;3.90;85.38
46379;BME280;32084;42.254;22.744;2023-12-29T09:13:29;95825.19;;;3.89;84.98
46379;BME280;32084;42.254;22.744;2023-12-29T09:15:55;95812.81;;;3.89;84.92
46379;BME280;32084;42.254;22.744;2023-12-29T09:18:23;95811.44;;;4.09;84.76
46379;BME280;32084;42.254;22.744;2023-12-29T09:20:49;95807.31;;;4.31;83.56
46379;BME280;32084;42.254;22.744;2023-12-29T09:23:15;95793.75;;;4.48;83.02
46379;BME280;32084;42.254;22.744;2023-12-29T09:25:41;95799.88;;;4.49;82.04
46379;BME280;32084;42.254;22.744;2023-12-29T09:28:07;95801.75;;;4.73;82.29
46379;BME280;32084;42.254;22.744;2023-12-29T09:30:33;95785.56;;;5.01;80.69
46379;BME280;32084;42.254;22.744;2023-12-29T09:32:59;95796.84;;;5.16;79.35
46379;BME280;32084;42.254;22.744;2023-12-29T09:35:25;95790.69;;;5.64;77.39
46379;BME280;32084;42.254;22.744;2023-12-29T09:37:52;95781.25;;;5.95;73.66
46379;BME280;32084;42.254;22.744;2023-12-29T09:40:18;95780.38;;;6.41;72.72
46379;BME280;32084;42.254;22.744;2023-12-29T09:42:44;95775.03;;;6.75;72.16
46379;BME280;32084;42.254;22.744;2023-12-29T09:45:13;95778.28;;;6.79;71.92
46379;BME280;32084;42.254;22.744;2023-12-29T09:47:40;95775.13;;;7.08;71.60
46379;BME280;32084;42.254;22.744;2023-12-29T09:50:12;95764.22;;;7.43;70.66
46379;BME280;32084;42.254;22.744;2023-12-29T09:52:39;95759.00;;;7.74;68.42
46379;BME280;32084;42.254;22.744;2023-12-29T09:55:07;95755.63;;;7.72;68.75
46379;BME280;32084;42.254;22.744;2023-12-29T09:57:36;95752.00;;;7.94;68.14
46379;BME280;32084;42.254;22.744;2023-12-29T10:00:02;95746.38;;;8.08;67.75
46379;BME280;32084;42.254;22.744;2023-12-29T10:02:28;95759.13;;;8.35;66.73
46379;BME280;32084;42.254;22.744;2023-12-29T10:04:54;95746.63;;;8.57;67.06
46379;BME280;32084;42.254;22.744;2023-12-29T10:07:24;95735.09;;;8.47;67.06
46379;BME280;32084;42.254;22.744;2023-12-29T10:09:57;95733.09;;;8.79;67.23
46379;BME280;32084;42.254;22.744;2023-12-29T10:12:24;95726.25;;;8.96;65.57
46379;BME280;32084;42.254;22.744;2023-12-29T10:15:02;95718.56;;;9.03;65.80
46379;BME280;32084;42.254;22.744;2023-12-29T10:20:20;95714.53;;;9.38;64.93
46379;BME280;32084;42.254;22.744;2023-12-29T10:25:22;95699.63;;;9.45;66.92
46379;BME280;32084;42.254;22.744;2023-12-29T10:27:48;95699.91;;;9.62;66.13
46379;BME280;32084;42.254;22.744;2023-12-29T10:30:14;95699.34;;;9.77;66.73
46379;BME280;32084;42.254;22.744;2023-12-29T10:32:41;95707.03;;;10.00;65.43
46379;BME280;32084;42.254;22.744;2023-12-29T10:35:07;95711.75;;;10.16;64.68
46379;BME280;32084;42.254;22.744;2023-12-29T10:37:33;95699.63;;;9.65;66.13
46379;BME280;32084;42.254;22.744;2023-12-29T10:39:59;95701.03;;;9.69;65.90
46379;BME280;32084;42.254;22.744;2023-12-29T10:42:25;95701.88;;;9.50;66.66
46379;BME280;32084;42.254;22.744;2023-12-29T10:45:03;95694.72;;;9.70;65.82
46379;BME280;32084;42.254;22.744;2023-12-29T10:47:30;95690.75;;;9.74;65.48
46379;BME280;32084;42.254;22.744;2023-12-29T10:49:58;95684.44;;;9.55;66.13
46379;BME280;32084;42.254;22.744;2023-12-29T10:52:24;95677.84;;;9.60;66.19
46379;BME280;32084;42.254;22.744;2023-12-29T10:54:50;95674.00;;;9.91;64.51
46379;BME280;32084;42.254;22.744;2023-12-29T10:57:29;95663.97;;;10.03;63.80
46379;BME280;32084;42.254;22.744;2023-12-29T10:59:55;95652.38;;;9.75;64.79
46379;BME280;32084;42.254;22.744;2023-12-29T11:02:22;95647.41;;;10.00;65.12
46379;BME280;32084;42.254;22.744;2023-12-29T11:04:47;95641.69;;;10.22;64.05
46379;BME280;32084;42.254;22.744;2023-12-29T11:07:15;95636.69;;;10.47;64.46
46379;BME280;32084;42.254;22.744;2023-12-29T11:09:42;95636.25;;;10.51;63.57
46379;BME280;32084;42.254;22.744;2023-12-29T11:12:08;95631.84;;;10.32;64.00
46379;BME280;32084;42.254;22.744;2023-12-29T11:14:35;95622.16;;;10.22;65.61
46379;BME280;32084;42.254;22.744;2023-12-29T11:17:01;95619.63;;;10.20;64.83
46379;BME280;32084;42.254;22.744;2023-12-29T11:19:27;95609.81;;;10.11;66.06
46379;BME280;32084;42.254;22.744;2023-12-29T11:21:56;95612.53;;;10.39;64.65
46379;BME280;32084;42.254;22.744;2023-12-29T11:24:22;95607.81;;;10.78;63.70
46379;BME280;32084;42.254;22.744;2023-12-29T11:26:51;95605.66;;;11.00;63.29
46379;BME280;32084;42.254;22.744;2023-12-29T11:29:18;95600.94;;;11.11;62.26
46379;BME280;32084;42.254;22.744;2023-12-29T11:31:45;95606.03;;;11.23;61.52
46379;BME280;32084;42.254;22.744;2023-12-29T11:36:41;95605.81;;;10.80;62.96
46379;BME280;32084;42.254;22.744;2023-12-29T11:41:40;95613.69;;;10.36;62.94
46379;BME280;32084;42.254;22.744;2023-12-29T11:44:07;95604.66;;;10.37;63.09
46379;BME280;32084;42.254;22.744;2023-12-29T11:46:37;95600.13;;;10.65;61.66
46379;BME280;32084;42.254;22.744;2023-12-29T11:49:03;95597.75;;;10.62;60.86
46379;BME280;32084;42.254;22.744;2023-12-29T11:54:02;95585.97;;;11.01;60.27
46379;BME280;32084;42.254;22.744;2023-12-29T11:56:31;95580.53;;;11.10;60.43
46379;BME280;32084;42.254;22.744;2023-12-29T11:59:11;95577.63;;;11.22;60.05
46379;BME280;32084;42.254;22.744;2023-12-29T12:01:38;95581.13;;;11.40;58.72
46379;BME280;32084;42.254;22.744;2023-12-29T12:04:04;95585.06;;;11.36;58.26
46379;BME280;32084;42.254;22.744;2023-12-29T12:06:36;95582.56;;;11.35;58.77
46379;BME280;32084;42.254;22.744;2023-12-29T12:12:02;95563.53;;;11.02;59.69
46379;BME280;32084;42.254;22.744;2023-12-29T12:14:48;95560.47;;;11.14;60.19
46379;BME280;32084;42.254;22.744;2023-12-29T12:17:27;95557.88;;;11.23;61.08
46379;BME280;32084;42.254;22.744;2023-12-29T12:19:57;95558.81;;;11.13;61.03
46379;BME280;32084;42.254;22.744;2023-12-29T12:22:24;95557.28;;;10.93;60.33
46379;BME280;32084;42.254;22.744;2023-12-29T12:24:55;95555.94;;;10.89;59.42
46379;BME280;32084;42.254;22.744;2023-12-29T12:27:21;95562.03;;;10.99;59.65
46379;BME280;32084;42.254;22.744;2023-12-29T12:29:54;95555.66;;;11.00;59.66
46379;BME280;32084;42.254;22.744;2023-12-29T12:32:23;95549.34;;;11.01;59.67
46379;BME280;32084;42.254;22.744;2023-12-29T12:34:49;95555.66;;;11.00;60.83
46379;BME280;32084;42.254;22.744;2023-12-29T12:37:22;95554.63;;;10.93;60.22
46379;BME280;32084;42.254;22.744;2023-12-29T12:39:48;95561.97;;;10.91;59.05
46379;BME280;32084;42.254;22.744;2023-12-29T12:42:18;95554.00;;;10.81;59.49
46379;BME280;32084;42.254;22.744;2023-12-29T12:45:03;95560.34;;;10.80;59.86
46379;BME280;32084;42.254;22.744;2023-12-29T12:47:34;95546.72;;;10.73;61.47
46379;BME280;32084;42.254;22.744;2023-12-29T12:50:02;95548.09;;;10.60;61.49
46379;BME280;32084;42.254;22.744;2023-12-29T12:52:33;95550.00;;;10.49;62.52
46379;BME280;32084;42.254;22.744;2023-12-29T12:54:59;95545.03;;;10.37;62.76
46379;BME280;32084;42.254;22.744;2023-12-29T12:57:25;95549.53;;;10.36;62.91
46379;BME280;32084;42.254;22.744;2023-12-29T12:59:51;95543.78;;;10.31;61.98
46379;BME280;32084;42.254;22.744;2023-12-29T13:02:18;95546.31;;;10.32;60.55
46379;BME280;32084;42.254;22.744;2023-12-29T13:04:45;95545.56;;;10.40;62.03
46379;BME280;32084;42.254;22.744;2023-12-29T13:10:33;95532.09;;;10.32;62.79
46379;BME280;32084;42.254;22.744;2023-12-29T13:12:59;95535.47;;;10.24;61.68